Time;durP1;ratioP1;P1;durP2;ratioP2;P2;SDS_P1;SDS_P2;PMS_P1;PMS_P2;Temp;Humidity;BMP_temperature;BMP_pressure;BME280_temperature;BME280_humidity;BME280_pressure;Samples;Min_cycle;Max_cycle;Signal;HPM_P1;HPM_P2
2023/03/15 00:00:48;;;;;;;10.55;2.30;;;2.80;1.00;;;;;;5050104;28;20678;-78
2023/03/15 00:03:16;;;;;;;8.50;2.53;;;2.80;1.00;;;;;;5043724;28;20241;-78
2023/03/15 00:05:44;;;;;;;9.57;1.90;;;2.80;1.00;;;;;;5039990;28;20323;-79
2023/03/15 00:08:13;;;;;;;11.55;2.10;;;2.80;1.00;;;;;;5038577;28;20241;-79
2023/03/15 00:10:41;;;;;;;10.75;2.88;;;2.80;1.00;;;;;;5038866;28;20301;-78
2023/03/15 00:13:09;;;;;;;11.15;4.47;;;2.70;1.00;;;;;;5046429;28;20229;-78
2023/03/15 00:15:36;;;;;;;12.68;2.20;;;2.70;1.00;;;;;;5040589;28;20246;-78
2023/03/15 00:18:04;;;;;;;12.93;2.40;;;2.70;1.00;;;;;;5043574;28;20242;-78
2023/03/15 00:20:31;;;;;;;14.05;2.60;;;2.70;1.00;;;;;;5043443;28;20244;-78
2023/03/15 00:22:58;;;;;;;8.25;2.60;;;2.70;1.00;;;;;;5042334;28;20234;-78
2023/03/15 00:25:26;;;;;;;8.85;1.92;;;2.70;1.00;;;;;;5045238;28;21110;-78
2023/03/15 00:27:53;;;;;;;8.20;2.10;;;2.70;1.00;;;;;;5056715;28;20228;-79
2023/03/15 00:30:20;;;;;;;13.63;2.30;;;2.70;1.00;;;;;;5056303;28;20332;-78
2023/03/15 00:32:47;;;;;;;9.50;2.35;;;2.70;1.00;;;;;;5055366;28;20290;-79
2023/03/15 00:35:17;;;;;;;11.70;2.42;;;2.70;1.00;;;;;;5056170;28;20268;-79
2023/03/15 00:37:44;;;;;;;14.48;2.10;;;2.70;1.00;;;;;;5059738;28;20662;-79
2023/03/15 00:40:12;;;;;;;10.93;2.15;;;2.70;1.00;;;;;;5059750;28;20236;-78
2023/03/15 00:42:40;;;;;;;11.57;2.55;;;2.70;1.00;;;;;;5061376;28;21036;-76
2023/03/15 00:45:09;;;;;;;10.60;1.95;;;2.70;1.00;;;;;;5059522;28;22706;-79
2023/03/15 00:47:36;;;;;;;15.38;2.50;;;2.70;1.00;;;;;;5055492;28;20247;-78
2023/03/15 00:50:03;;;;;;;11.88;2.60;;;2.60;1.00;;;;;;5058100;28;20244;-80
2023/03/15 00:52:35;;;;;;;8.20;2.47;;;2.60;1.00;;;;;;5061991;28;20265;-79
2023/03/15 00:55:03;;;;;;;8.93;2.00;;;2.60;1.00;;;;;;5062712;28;20228;-79
2023/03/15 00:57:32;;;;;;;9.77;2.53;;;2.60;1.00;;;;;;5062876;28;20287;-78
2023/03/15 01:00:05;;;;;;;8.23;2.75;;;2.60;1.00;;;;;;5061286;28;20241;-78
2023/03/15 01:02:33;;;;;;;7.97;2.33;;;2.60;1.00;;;;;;5057808;28;20241;-77
2023/03/15 01:05:00;;;;;;;8.85;2.40;;;2.60;1.00;;;;;;5061390;28;20237;-77
2023/03/15 01:07:27;;;;;;;8.32;2.22;;;2.60;1.00;;;;;;5064241;28;20316;-78
2023/03/15 01:09:54;;;;;;;12.95;2.30;;;2.60;1.00;;;;;;5064221;28;20348;-77
2023/03/15 01:12:21;;;;;;;10.95;2.42;;;2.50;1.00;;;;;;5067837;28;20234;-78
2023/03/15 01:14:48;;;;;;;8.38;2.10;;;2.50;1.00;;;;;;5065290;28;20243;-78
2023/03/15 01:17:16;;;;;;;8.73;2.10;;;2.60;1.00;;;;;;5060198;28;20585;-77
2023/03/15 01:19:43;;;;;;;15.00;2.67;;;2.60;1.00;;;;;;5046067;28;20307;-78
2023/03/15 01:22:10;;;;;;;14.25;2.20;;;2.60;1.00;;;;;;5044242;28;21086;-77
2023/03/15 01:24:37;;;;;;;12.13;2.20;;;2.60;1.00;;;;;;5044204;28;20238;-77
2023/03/15 01:27:05;;;;;;;10.73;2.25;;;2.60;1.00;;;;;;5060173;28;21021;-77
2023/03/15 01:29:31;;;;;;;8.25;2.13;;;2.60;1.00;;;;;;5060177;28;21144;-78
2023/03/15 01:31:58;;;;;;;6.68;1.65;;;2.60;1.00;;;;;;5061106;28;20288;-78
2023/03/15 01:34:27;;;;;;;8.35;2.45;;;2.50;1.00;;;;;;5060955;28;20291;-78
2023/03/15 01:36:55;;;;;;;9.63;2.53;;;2.50;1.00;;;;;;5058662;28;20288;-79
2023/03/15 01:39:22;;;;;;;8.82;2.63;;;2.50;1.00;;;;;;5058855;28;20234;-78
2023/03/15 01:41:49;;;;;;;12.88;1.88;;;2.40;1.00;;;;;;5064195;28;20233;-82
2023/03/15 01:44:18;;;;;;;9.45;2.22;;;2.40;1.00;;;;;;5065649;28;20660;-83
2023/03/15 01:46:45;;;;;;;9.20;3.40;;;2.40;1.00;;;;;;5062500;28;20237;-83
2023/03/15 01:49:16;;;;;;;13.98;2.75;;;2.40;1.00;;;;;;5063396;28;20704;-82
2023/03/15 01:51:46;;;;;;;7.45;1.80;;;2.40;1.00;;;;;;5060708;28;20256;-83
2023/03/15 01:54:17;;;;;;;9.48;2.67;;;2.40;1.00;;;;;;5066707;28;20323;-83
2023/03/15 01:56:49;;;;;;;10.65;2.15;;;2.40;1.00;;;;;;5066745;28;20252;-83
2023/03/15 01:59:22;;;;;;;12.48;3.00;;;2.40;1.00;;;;;;5052712;27;20290;-83
2023/03/15 02:01:53;;;;;;;10.15;2.80;;;2.30;1.00;;;;;;5062337;28;20236;-80
2023/03/15 02:04:24;;;;;;;10.48;2.80;;;2.30;1.00;;;;;;5061136;28;20236;-80
2023/03/15 02:06:57;;;;;;;10.07;3.22;;;2.30;1.00;;;;;;5062280;28;20339;-81
2023/03/15 02:09:32;;;;;;;10.05;2.72;;;2.30;1.00;;;;;;5060560;28;21090;-81
2023/03/15 02:11:59;;;;;;;12.90;3.00;;;2.20;1.00;;;;;;5065938;28;20229;-81
2023/03/15 02:14:27;;;;;;;11.50;2.60;;;2.10;1.00;;;;;;5063182;28;20248;-79
2023/03/15 02:16:55;;;;;;;10.05;1.90;;;2.10;1.00;;;;;;5061468;28;20236;-80
2023/03/15 02:19:35;;;;;;;8.93;2.25;;;2.10;1.00;;;;;;5058862;28;20330;-80
2023/03/15 02:22:14;;;;;;;10.70;2.30;;;2.10;1.00;;;;;;5057898;28;21092;-80
2023/03/15 02:24:49;;;;;;;13.10;2.67;;;2.10;1.00;;;;;;5062330;28;20274;-81
2023/03/15 02:27:26;;;;;;;10.27;2.75;;;2.00;1.00;;;;;;5062122;28;20240;-80
2023/03/15 02:29:53;;;;;;;15.07;2.40;;;2.00;1.00;;;;;;5069811;28;20351;-80
2023/03/15 02:32:20;;;;;;;7.30;1.95;;;2.00;1.00;;;;;;5064204;28;20765;-80
2023/03/15 02:34:47;;;;;;;12.50;2.15;;;2.00;1.00;;;;;;5062161;28;20291;-80
2023/03/15 02:37:14;;;;;;;7.43;2.03;;;2.00;1.00;;;;;;5065126;28;20291;-78
2023/03/15 02:39:41;;;;;;;7.93;2.53;;;1.90;1.00;;;;;;5065990;28;20263;-80
2023/03/15 02:42:08;;;;;;;9.25;2.40;;;1.90;1.00;;;;;;5060009;28;20327;-79
2023/03/15 02:44:39;;;;;;;10.50;3.00;;;1.90;1.00;;;;;;5061365;28;20266;-80
2023/03/15 02:47:10;;;;;;;14.05;2.22;;;1.80;1.00;;;;;;5058700;28;20323;-79
2023/03/15 02:49:40;;;;;;;8.35;2.00;;;1.80;1.00;;;;;;5066010;28;20248;-80
2023/03/15 02:52:08;;;;;;;12.75;2.38;;;1.80;1.00;;;;;;5057622;28;20236;-80
2023/03/15 02:54:35;;;;;;;13.52;2.55;;;1.80;1.00;;;;;;5059918;28;20337;-80
2023/03/15 02:57:03;;;;;;;9.50;2.28;;;1.70;1.00;;;;;;5062298;28;21057;-80
2023/03/15 02:59:30;;;;;;;10.68;2.63;;;1.70;1.00;;;;;;5061505;28;20232;-79
2023/03/15 03:01:58;;;;;;;9.10;2.28;;;1.70;1.00;;;;;;5057415;28;20242;-80
2023/03/15 03:04:25;;;;;;;10.85;2.75;;;1.70;1.00;;;;;;5059318;28;20306;-79
2023/03/15 03:06:52;;;;;;;12.80;2.53;;;1.70;1.00;;;;;;5058931;28;20241;-80
2023/03/15 03:09:19;;;;;;;11.32;2.05;;;1.70;1.00;;;;;;5061891;28;20286;-80
2023/03/15 03:11:47;;;;;;;6.88;2.15;;;1.60;1.00;;;;;;5057777;28;20237;-80
2023/03/15 03:14:13;;;;;;;15.93;3.25;;;1.60;1.00;;;;;;5057122;28;20320;-79
2023/03/15 03:16:41;;;;;;;9.68;2.42;;;1.60;1.00;;;;;;5061409;28;20240;-80
2023/03/15 03:19:11;;;;;;;9.20;2.50;;;1.60;1.00;;;;;;5090144;27;20243;-80
2023/03/15 03:21:42;;;;;;;8.18;2.20;;;1.60;1.00;;;;;;5057101;28;20240;-79
2023/03/15 03:24:09;;;;;;;9.05;2.67;;;1.50;1.00;;;;;;5068589;28;20245;-80
2023/03/15 03:26:36;;;;;;;15.00;2.53;;;1.60;1.00;;;;;;5064738;28;20726;-80
2023/03/15 03:29:05;;;;;;;9.23;2.10;;;1.50;1.00;;;;;;5061408;28;20324;-79
2023/03/15 03:31:32;;;;;;;8.80;2.38;;;1.50;1.00;;;;;;5055441;28;20314;-80
2023/03/15 03:33:59;;;;;;;12.68;2.72;;;1.60;1.00;;;;;;5061370;28;20282;-80
2023/03/15 03:36:28;;;;;;;13.43;2.75;;;1.60;1.00;;;;;;5051622;28;20237;-79
2023/03/15 03:38:55;;;;;;;8.82;2.63;;;1.70;1.00;;;;;;5060982;28;20248;-81
2023/03/15 03:41:23;;;;;;;8.75;2.67;;;1.90;1.00;;;;;;5057778;28;21026;-80
2023/03/15 03:43:50;;;;;;;9.82;2.70;;;2.00;1.00;;;;;;5059706;28;20245;-79
2023/03/15 03:46:17;;;;;;;13.45;3.17;;;2.10;1.00;;;;;;5057825;28;20328;-79
2023/03/15 03:48:43;;;;;;;9.73;2.70;;;2.20;1.00;;;;;;5059761;28;20721;-79
2023/03/15 03:51:11;;;;;;;8.60;2.15;;;2.20;1.00;;;;;;5056715;28;20244;-80
2023/03/15 03:53:40;;;;;;;10.20;2.65;;;2.20;1.00;;;;;;5061422;27;20342;-80
2023/03/15 03:56:07;;;;;;;8.15;2.22;;;2.30;1.00;;;;;;5061450;28;20244;-79
2023/03/15 03:58:34;;;;;;;13.93;3.08;;;2.30;1.00;;;;;;5058144;28;20315;-79
2023/03/15 04:01:02;;;;;;;7.55;2.47;;;2.30;1.00;;;;;;5063542;28;20755;-79
2023/03/15 04:03:29;;;;;;;8.10;2.10;;;2.20;1.00;;;;;;5055567;28;20243;-79
2023/03/15 04:05:58;;;;;;;7.85;2.13;;;2.10;1.00;;;;;;5057976;28;20230;-80
2023/03/15 04:08:26;;;;;;;10.27;2.95;;;2.10;1.00;;;;;;5058942;28;20244;-79
2023/03/15 04:10:56;;;;;;;9.25;3.50;;;1.90;1.00;;;;;;5060246;28;20322;-80
2023/03/15 04:13:24;;;;;;;9.55;1.90;;;1.80;1.00;;;;;;5060565;28;20234;-79
2023/03/15 04:15:56;;;;;;;9.93;2.22;;;1.80;1.00;;;;;;5060890;28;20268;-80
2023/03/15 04:18:23;;;;;;;9.73;2.25;;;1.70;1.00;;;;;;5060161;28;20285;-80
2023/03/15 04:20:53;;;;;;;9.32;2.30;;;1.70;1.00;;;;;;5060867;28;20218;-80
2023/03/15 04:23:23;;;;;;;11.23;2.72;;;1.70;1.00;;;;;;5064372;28;20724;-80
2023/03/15 04:25:51;;;;;;;14.25;3.00;;;1.70;1.00;;;;;;5065825;28;20259;-79
2023/03/15 04:28:21;;;;;;;12.25;2.45;;;1.80;1.00;;;;;;5061693;28;20300;-81
2023/03/15 04:30:50;;;;;;;10.27;2.50;;;1.70;1.00;;;;;;5063113;28;20225;-79
2023/03/15 04:33:17;;;;;;;9.02;2.40;;;1.70;1.00;;;;;;5066791;28;20771;-80
2023/03/15 04:35:44;;;;;;;8.40;2.20;;;1.70;1.00;;;;;;5068054;28;20344;-79
2023/03/15 04:38:11;;;;;;;10.30;2.70;;;1.70;1.00;;;;;;5063044;28;20224;-80
2023/03/15 04:40:41;;;;;;;11.00;2.67;;;1.60;1.00;;;;;;5062769;28;20220;-79
2023/03/15 04:43:09;;;;;;;9.60;2.05;;;1.60;1.00;;;;;;5062246;28;21866;-79
2023/03/15 04:45:37;;;;;;;9.85;2.92;;;1.60;1.00;;;;;;5062306;28;20260;-81
2023/03/15 04:48:05;;;;;;;19.98;4.22;;;1.50;1.00;;;;;;5064094;28;20241;-80
2023/03/15 04:50:34;;;;;;;11.52;2.97;;;1.50;1.00;;;;;;5061401;28;20363;-78
2023/03/15 04:53:02;;;;;;;13.15;2.88;;;1.50;1.00;;;;;;5062072;28;21650;-81
2023/03/15 04:55:29;;;;;;;11.82;2.30;;;1.40;1.00;;;;;;5062568;28;20299;-81
2023/03/15 04:57:58;;;;;;;8.52;2.22;;;1.40;1.00;;;;;;5063931;28;20233;-80
2023/03/15 05:00:27;;;;;;;10.05;2.58;;;1.40;1.00;;;;;;5069368;28;20237;-80
2023/03/15 05:02:55;;;;;;;7.90;2.25;;;1.30;1.00;;;;;;5056822;28;20268;-79
2023/03/15 05:05:23;;;;;;;10.70;4.18;;;1.30;1.00;;;;;;5062096;28;20668;-80
2023/03/15 05:07:50;;;;;;;9.38;3.10;;;1.20;1.00;;;;;;5062084;28;20751;-79
2023/03/15 05:10:18;;;;;;;10.43;2.85;;;1.20;1.00;;;;;;5064151;28;20291;-80
2023/03/15 05:12:45;;;;;;;8.48;2.63;;;1.20;1.00;;;;;;5060885;28;20241;-80
2023/03/15 05:15:13;;;;;;;10.63;3.90;;;1.20;1.00;;;;;;5063639;28;20323;-78
2023/03/15 05:17:40;;;;;;;15.55;3.47;;;1.20;1.00;;;;;;5056905;28;20331;-80
2023/03/15 05:20:11;;;;;;;17.83;4.03;;;1.20;1.00;;;;;;5064059;28;20241;-80
2023/03/15 05:22:39;;;;;;;9.82;3.70;;;1.20;1.00;;;;;;5066438;28;20650;-80
2023/03/15 05:25:09;;;;;;;10.57;3.35;;;1.20;1.00;;;;;;5063678;28;21029;-81
2023/03/15 05:27:37;;;;;;;9.52;2.30;;;1.20;1.00;;;;;;5058034;28;20257;-80
2023/03/15 05:30:06;;;;;;;10.57;3.85;;;1.30;1.00;;;;;;5065828;28;20244;-80
2023/03/15 05:32:36;;;;;;;14.15;4.05;;;1.40;1.00;;;;;;5055193;28;20304;-80
2023/03/15 05:35:05;;;;;;;11.57;3.38;;;1.30;1.00;;;;;;5060715;28;20355;-80
2023/03/15 05:37:35;;;;;;;15.02;3.97;;;1.30;1.00;;;;;;5058588;28;20295;-80
2023/03/15 05:40:08;;;;;;;10.85;2.85;;;1.30;1.00;;;;;;5058260;28;20237;-80
2023/03/15 05:42:36;;;;;;;8.82;2.85;;;1.30;1.00;;;;;;5059485;28;20639;-80
2023/03/15 05:45:03;;;;;;;9.15;3.00;;;1.30;1.00;;;;;;5061943;28;21819;-78
2023/03/15 05:47:29;;;;;;;10.68;3.45;;;1.40;1.00;;;;;;5064764;28;20337;-79
2023/03/15 05:49:57;;;;;;;10.45;2.80;;;1.60;1.00;;;;;;5064015;28;20246;-81
2023/03/15 05:52:25;;;;;;;9.95;2.95;;;1.70;1.00;;;;;;5062666;28;20237;-81
2023/03/15 05:54:53;;;;;;;13.75;3.03;;;1.80;1.00;;;;;;5059011;28;20240;-80
2023/03/15 05:57:23;;;;;;;12.10;2.58;;;2.00;1.00;;;;;;5064619;28;20241;-80
2023/03/15 05:59:50;;;;;;;15.07;2.85;;;2.10;1.00;;;;;;5065517;28;20233;-80
2023/03/15 06:02:17;;;;;;;9.93;3.20;;;2.20;1.00;;;;;;5060471;28;20272;-79
2023/03/15 06:04:44;;;;;;;12.02;3.33;;;2.30;1.00;;;;;;5074685;28;20269;-80
2023/03/15 06:07:13;;;;;;;11.43;3.75;;;2.40;1.00;;;;;;5061058;28;20303;-80
2023/03/15 06:09:40;;;;;;;13.38;2.70;;;2.50;1.00;;;;;;5064481;28;20247;-79
2023/03/15 06:12:09;;;;;;;9.43;3.05;;;2.50;1.00;;;;;;5066828;28;20242;-79
2023/03/15 06:14:36;;;;;;;11.43;3.78;;;2.40;1.00;;;;;;5059181;28;20322;-79
2023/03/15 06:17:03;;;;;;;11.82;3.10;;;2.40;1.00;;;;;;5073379;28;20229;-80
2023/03/15 06:19:30;;;;;;;13.88;3.88;;;2.40;1.00;;;;;;5064706;28;21112;-81
2023/03/15 06:21:57;;;;;;;10.07;3.40;;;2.50;1.00;;;;;;5060683;28;23747;-80
2023/03/15 06:24:24;;;;;;;11.63;3.17;;;2.60;1.00;;;;;;5058154;27;20302;-80
2023/03/15 06:26:53;;;;;;;10.80;3.03;;;2.80;1.00;;;;;;5086745;27;20232;-79
2023/03/15 06:29:22;;;;;;;10.77;2.90;;;3.00;1.00;;;;;;5064653;27;20274;-82
2023/03/15 06:31:49;;;;;;;14.70;3.72;;;3.10;1.00;;;;;;5085876;27;20943;-79
2023/03/15 06:34:17;;;;;;;12.77;4.45;;;3.20;1.00;;;;;;5061608;28;20240;-79
2023/03/15 06:36:45;;;;;;;10.25;2.75;;;3.30;1.00;;;;;;5054319;28;20294;-77
2023/03/15 06:39:14;;;;;;;11.50;3.65;;;3.30;1.00;;;;;;5058515;28;20245;-79
2023/03/15 06:41:41;;;;;;;12.65;3.30;;;3.20;1.00;;;;;;5062123;28;21061;-81
2023/03/15 06:44:09;;;;;;;12.73;4.60;;;3.30;1.00;;;;;;5071084;28;20247;-79
2023/03/15 06:46:38;;;;;;;12.32;3.75;;;3.40;1.00;;;;;;5074095;28;20699;-80
2023/03/15 06:49:08;;;;;;;7.82;2.90;;;3.40;1.00;;;;;;5070314;28;20378;-80
2023/03/15 06:51:35;;;;;;;9.77;3.08;;;3.20;1.00;;;;;;5077838;28;20264;-80
2023/03/15 06:54:02;;;;;;;11.63;3.80;;;3.10;1.00;;;;;;5069634;28;20324;-79
2023/03/15 06:56:29;;;;;;;12.70;4.22;;;3.10;1.00;;;;;;5069882;28;20238;-81
2023/03/15 06:58:58;;;;;;;10.80;3.50;;;3.00;1.00;;;;;;5067268;28;20240;-79
2023/03/15 07:01:25;;;;;;;15.43;4.60;;;3.10;1.00;;;;;;5064019;28;20233;-78
2023/03/15 07:03:54;;;;;;;8.45;3.20;;;3.20;1.00;;;;;;5064905;28;21026;-81
2023/03/15 07:06:21;;;;;;;8.85;2.95;;;3.30;1.00;;;;;;5069631;28;20240;-80
2023/03/15 07:08:48;;;;;;;10.15;3.75;;;3.30;1.00;;;;;;5072027;28;20283;-80
2023/03/15 07:11:17;;;;;;;15.27;3.97;;;3.50;1.00;;;;;;5065833;28;20241;-80
2023/03/15 07:13:44;;;;;;;10.63;3.47;;;3.50;1.00;;;;;;5073311;28;20347;-79
2023/03/15 07:16:12;;;;;;;8.98;2.90;;;3.50;1.00;;;;;;5067241;28;20299;-78
2023/03/15 07:18:40;;;;;;;10.25;3.30;;;3.50;1.00;;;;;;5070420;28;20900;-79
2023/03/15 07:21:29;;;;;;;10.35;4.57;;;3.60;1.00;;;;;;5070395;28;21054;-81
2023/03/15 07:23:56;;;;;;;11.38;3.22;;;3.80;1.00;;;;;;5064273;28;20806;-76
2023/03/15 07:26:26;;;;;;;13.73;4.25;;;4.10;1.00;;;;;;5076926;28;20254;-92
2023/03/15 07:28:53;;;;;;;9.90;3.10;;;4.50;1.00;;;;;;5074353;28;20938;-85
2023/03/15 07:31:21;;;;;;;11.55;3.60;;;4.80;1.00;;;;;;5074371;28;20372;-77
2023/03/15 07:33:48;;;;;;;11.02;3.60;;;4.90;1.00;;;;;;5065326;28;20299;-79
2023/03/15 07:36:16;;;;;;;12.88;3.50;;;4.80;1.00;;;;;;5058326;28;20248;-78
2023/03/15 07:38:43;;;;;;;12.23;3.55;;;4.80;1.00;;;;;;5060753;28;20237;-78
2023/03/15 07:41:10;;;;;;;13.70;3.25;;;4.80;1.00;;;;;;5061374;28;20301;-78
2023/03/15 07:43:37;;;;;;;10.30;2.22;;;4.80;1.00;;;;;;5055038;28;20240;-78
2023/03/15 07:46:05;;;;;;;14.60;3.80;;;4.70;1.00;;;;;;5062554;28;20740;-78
2023/03/15 07:48:32;;;;;;;10.38;2.85;;;4.70;1.00;;;;;;5067807;28;20328;-78
2023/03/15 07:51:00;;;;;;;12.43;3.75;;;4.80;1.00;;;;;;5065097;28;21044;-83
2023/03/15 07:53:28;;;;;;;10.15;3.53;;;4.80;1.00;;;;;;5074859;28;20236;-83
2023/03/15 07:55:55;;;;;;;12.45;3.92;;;4.70;1.00;;;;;;5072230;28;20276;-86
2023/03/15 07:58:22;;;;;;;9.35;3.30;;;4.70;1.00;;;;;;5073856;28;20337;-84
2023/03/15 08:00:49;;;;;;;10.88;3.22;;;4.70;1.00;;;;;;5070916;28;20264;-84
2023/03/15 08:03:18;;;;;;;10.43;4.15;;;4.60;1.00;;;;;;5067179;28;20272;-83
2023/03/15 08:05:45;;;;;;;11.65;3.60;;;4.70;1.00;;;;;;5067567;28;20791;-83
2023/03/15 08:08:12;;;;;;;12.07;4.25;;;4.80;1.00;;;;;;5070106;28;20233;-81
2023/03/15 08:10:42;;;;;;;13.25;5.25;;;4.80;1.00;;;;;;5073334;28;20294;-83
2023/03/15 08:13:08;;;;;;;11.32;3.90;;;4.80;1.00;;;;;;5072466;28;20236;-81
2023/03/15 08:15:35;;;;;;;8.90;3.92;;;4.80;1.00;;;;;;5062602;28;20237;-81
2023/03/15 08:18:03;;;;;;;12.50;4.10;;;4.90;1.00;;;;;;5071014;28;20245;-83
2023/03/15 08:20:32;;;;;;;11.70;3.70;;;4.80;1.00;;;;;;5062197;28;20255;-82
2023/03/15 08:23:00;;;;;;;10.70;4.30;;;4.80;1.00;;;;;;5064274;28;20884;-81
2023/03/15 08:25:27;;;;;;;10.60;3.60;;;4.80;1.00;;;;;;5066398;28;20233;-83
2023/03/15 08:27:56;;;;;;;10.82;4.07;;;4.80;1.00;;;;;;5068649;28;20292;-83
2023/03/15 08:30:24;;;;;;;12.35;4.20;;;4.80;1.00;;;;;;5070240;28;20344;-82
2023/03/15 08:32:54;;;;;;;10.20;4.05;;;4.90;1.00;;;;;;5057062;28;20236;-85
2023/03/15 08:35:22;;;;;;;11.35;3.85;;;4.90;1.00;;;;;;5052128;28;20241;-87
2023/03/15 08:37:51;;;;;;;17.55;10.23;;;4.80;1.00;;;;;;5071368;28;20241;-85
2023/03/15 08:40:23;;;;;;;10.38;4.35;;;4.90;1.00;;;;;;5078257;28;20232;-86
2023/03/15 08:42:51;;;;;;;8.40;3.80;;;4.90;1.00;;;;;;5075092;28;20263;-84
2023/03/15 08:45:20;;;;;;;12.00;5.05;;;4.90;1.00;;;;;;5072799;28;20283;-84
2023/03/15 08:47:47;;;;;;;9.05;3.80;;;4.90;1.00;;;;;;5070964;28;20230;-87
2023/03/15 08:50:16;;;;;;;13.98;4.22;;;4.80;1.00;;;;;;5068788;28;21206;-83
2023/03/15 08:52:44;;;;;;;9.15;4.43;;;4.90;1.00;;;;;;5072323;28;20269;-83
2023/03/15 08:55:13;;;;;;;11.02;4.28;;;4.90;1.00;;;;;;5068932;28;20232;-84
2023/03/15 08:57:40;;;;;;;11.25;4.65;;;4.90;1.00;;;;;;5069687;28;20237;-83
2023/03/15 09:00:08;;;;;;;11.40;4.22;;;5.00;1.00;;;;;;5072217;28;20249;-85
2023/03/15 09:02:37;;;;;;;13.18;3.80;;;5.00;1.00;;;;;;5053549;28;20245;-85
2023/03/15 09:05:05;;;;;;;11.38;4.30;;;5.00;1.00;;;;;;5065359;28;20248;-85
2023/03/15 09:07:32;;;;;;;12.82;4.13;;;5.00;1.00;;;;;;5073324;28;20264;-86
2023/03/15 09:09:59;;;;;;;12.07;4.90;;;5.00;1.00;;;;;;5071456;28;20291;-81
2023/03/15 09:12:27;;;;;;;13.40;4.70;;;5.10;1.00;;;;;;5066384;28;20240;-85
2023/03/15 09:14:54;;;;;;;9.48;3.60;;;5.20;1.00;;;;;;5061495;28;21204;-82
2023/03/15 09:17:21;;;;;;;8.35;4.10;;;5.20;1.00;;;;;;5069588;28;20232;-80
2023/03/15 09:19:51;;;;;;;10.90;4.28;;;5.30;1.00;;;;;;5071510;28;20720;-79
2023/03/15 09:22:19;;;;;;;13.13;4.30;;;5.40;1.00;;;;;;5066297;28;20250;-87
2023/03/15 09:24:46;;;;;;;13.68;4.50;;;5.70;1.00;;;;;;5070862;28;20250;-83
2023/03/15 09:27:15;;;;;;;10.02;3.47;;;6.20;1.00;;;;;;5061514;28;20240;-83
2023/03/15 09:29:42;;;;;;;10.38;4.50;;;6.70;1.00;;;;;;5057460;28;20238;-83
2023/03/15 09:32:10;;;;;;;9.85;4.90;;;7.10;1.00;;;;;;5070143;28;22331;-83
2023/03/15 09:34:37;;;;;;;10.25;3.75;;;7.20;1.00;;;;;;5064030;28;20725;-84
2023/03/15 09:37:06;;;;;;;8.65;3.30;;;7.20;1.00;;;;;;5073066;28;20252;-84
2023/03/15 09:39:35;;;;;;;17.48;5.30;;;7.00;1.00;;;;;;5066852;28;20246;-86
2023/03/15 09:42:03;;;;;;;17.83;6.00;;;6.80;1.00;;;;;;5074550;28;20247;-86
2023/03/15 09:44:44;;;;;;;9.98;4.45;;;6.70;1.00;;;;;;5068779;28;20300;-85
2023/03/15 09:47:25;;;;;;;10.38;3.90;;;6.50;1.00;;;;;;5071919;28;20321;-85
2023/03/15 09:49:57;;;;;;;12.60;4.22;;;6.20;1.00;;;;;;5079270;28;20234;-85
2023/03/15 09:52:38;;;;;;;12.45;4.07;;;5.90;1.00;;;;;;5088095;28;20241;-87
2023/03/15 09:55:11;;;;;;;14.75;3.85;;;5.80;1.00;;;;;;5085369;28;20269;-84
2023/03/15 09:57:42;;;;;;;9.13;4.00;;;5.80;1.00;;;;;;5081528;28;20230;-88
2023/03/15 10:00:15;;;;;;;11.65;4.45;;;5.80;1.00;;;;;;5075616;28;20339;-79
2023/03/15 10:02:48;;;;;;;9.52;3.13;;;6.00;1.00;;;;;;5061187;28;20238;-79
2023/03/15 10:05:23;;;;;;;12.73;4.50;;;6.10;1.00;;;;;;5070160;28;20262;-78
2023/03/15 10:07:52;;;;;;;12.27;4.55;;;6.10;1.00;;;;;;5072458;28;20263;-81
2023/03/15 10:10:22;;;;;;;9.13;3.75;;;6.30;1.00;;;;;;5066428;28;20268;-78
2023/03/15 10:12:58;;;;;;;10.95;4.10;;;6.50;1.00;;;;;;5078231;27;20250;-83
2023/03/15 10:15:42;;;;;;;8.43;2.80;;;6.90;1.00;;;;;;5071636;28;20227;-87
2023/03/15 10:18:32;;;;;;;13.03;3.67;;;7.30;1.00;;;;;;5065740;28;20288;-85
2023/03/15 10:21:11;;;;;;;18.40;5.03;;;8.50;1.00;;;;;;5065970;27;20449;-82
2023/03/15 10:23:53;;;;;;;8.00;3.50;;;8.70;1.00;;;;;;5081955;28;20455;-84
2023/03/15 10:26:25;;;;;;;7.97;3.27;;;8.50;1.00;;;;;;5070975;28;20231;-81
2023/03/15 10:28:53;;;;;;;8.07;3.10;;;8.40;1.00;;;;;;5062163;28;20503;-86
2023/03/15 10:31:25;;;;;;;8.70;3.30;;;8.20;1.00;;;;;;5066290;28;21052;-81
2023/03/15 10:33:53;;;;;;;14.30;3.70;;;8.20;1.00;;;;;;5073121;28;20430;-85
2023/03/15 10:36:23;;;;;;;7.97;3.30;;;9.00;1.00;;;;;;5077111;28;20459;-86
2023/03/15 10:38:55;;;;;;;10.77;3.37;;;10.70;1.00;;;;;;5073586;28;20532;-85
2023/03/15 10:41:30;;;;;;;9.10;3.40;;;11.30;1.00;;;;;;5061539;28;20481;-87
2023/03/15 10:44:06;;;;;;;7.63;3.00;;;13.20;1.00;;;;;;5070221;27;20964;-84
2023/03/15 10:46:34;;;;;;;8.30;3.40;;;15.10;1.00;;;;;;5081095;27;20425;-84
2023/03/15 10:49:10;;;;;;;6.60;2.27;;;16.80;1.00;;;;;;5063343;28;21056;-81
2023/03/15 10:51:42;;;;;;;9.30;3.47;;;17.00;1.00;;;;;;5070676;28;20462;-80
2023/03/15 10:54:16;;;;;;;8.67;3.07;;;17.50;1.00;;;;;;5060971;28;20448;-82
2023/03/15 10:56:47;;;;;;;8.73;3.80;;;17.30;1.00;;;;;;5065857;28;20512;-81
2023/03/15 10:59:20;;;;;;;7.60;2.33;;;16.80;1.00;;;;;;5057372;28;20512;-81
2023/03/15 11:01:48;;;;;;;6.90;2.50;;;14.80;1.00;;;;;;5068260;28;20546;-82
2023/03/15 11:04:18;;;;;;;8.23;2.77;;;13.00;1.00;;;;;;5065585;28;20507;-82
2023/03/15 11:06:49;;;;;;;6.63;2.57;;;11.60;1.00;;;;;;5065436;28;20469;-80
2023/03/15 11:09:20;;;;;;;7.60;2.80;;;10.60;1.00;;;;;;5066356;28;21004;-80
2023/03/15 11:11:58;;;;;;;6.50;3.10;;;9.90;1.00;;;;;;5069251;28;20474;-79
2023/03/15 11:14:25;;;;;;;9.30;2.80;;;9.40;1.00;;;;;;5049140;28;20541;-80
2023/03/15 11:16:54;;;;;;;9.00;3.00;;;8.80;1.00;;;;;;5018826;28;20477;-81
2023/03/15 11:19:26;;;;;;;9.63;3.40;;;8.40;1.00;;;;;;5062034;28;21205;-81
2023/03/15 11:21:54;;;;;;;12.00;2.90;;;8.10;1.00;;;;;;5062621;28;20478;-82
2023/03/15 11:24:26;;;;;;;11.00;4.45;;;7.90;1.00;;;;;;5064367;28;20458;-81
2023/03/15 11:26:55;;;;;;;14.57;4.13;;;7.60;1.00;;;;;;5061713;28;20242;-82
2023/03/15 11:29:29;;;;;;;8.77;2.90;;;8.60;1.00;;;;;;5062466;28;21175;-81
2023/03/15 11:31:56;;;;;;;13.83;3.43;;;9.30;1.00;;;;;;5062724;28;20471;-81
2023/03/15 11:34:37;;;;;;;8.60;2.80;;;9.40;1.00;;;;;;5064425;28;20451;-82
2023/03/15 11:37:10;;;;;;;7.07;2.63;;;9.50;1.00;;;;;;5064042;28;21179;-81
2023/03/15 11:39:44;;;;;;;9.50;3.10;;;10.60;1.00;;;;;;5062964;28;20465;-81
2023/03/15 11:42:18;;;;;;;10.43;4.20;;;11.30;1.00;;;;;;5056846;28;20450;-81
2023/03/15 11:44:47;;;;;;;8.20;3.37;;;11.50;1.00;;;;;;5046004;28;20453;-81
2023/03/15 11:47:23;;;;;;;7.77;2.00;;;11.40;1.00;;;;;;5047648;28;20448;-81
2023/03/15 11:49:53;;;;;;;7.63;2.90;;;11.30;1.00;;;;;;5043671;28;20534;-81
2023/03/15 11:52:23;;;;;;;6.97;1.90;;;10.90;1.00;;;;;;5042134;28;20594;-80
2023/03/15 11:54:54;;;;;;;7.23;2.50;;;10.30;1.00;;;;;;5052175;27;20465;-80
2023/03/15 11:57:42;;;;;;;7.90;3.43;;;10.10;1.00;;;;;;5068008;28;20483;-81
2023/03/15 12:00:20;;;;;;;7.80;2.37;;;11.20;1.00;;;;;;5069178;27;20461;-82
2023/03/15 12:02:50;;;;;;;7.93;2.87;;;11.90;1.00;;;;;;5065586;27;20561;-81
2023/03/15 12:05:42;;;;;;;8.73;2.70;;;14.70;1.00;;;;;;5063528;27;20463;-83
2023/03/15 12:08:40;;;;;;;9.40;2.70;;;17.60;1.00;;;;;;5066600;27;20574;-83
2023/03/15 12:11:13;;;;;;;8.37;2.60;;;17.90;1.00;;;;;;5063751;27;20455;-82
2023/03/15 12:13:52;;;;;;;7.10;2.00;;;18.20;1.00;;;;;;5062553;27;20475;-82
2023/03/15 12:16:22;;;;;;;8.33;2.50;;;16.30;1.00;;;;;;5062902;28;20446;-80
2023/03/15 12:18:49;;;;;;;7.73;2.20;;;14.50;1.00;;;;;;5061260;28;20542;-81
2023/03/15 12:21:20;;;;;;;6.80;2.50;;;15.10;1.00;;;;;;5066711;28;20484;-80
2023/03/15 12:23:57;;;;;;;10.37;2.40;;;17.70;1.00;;;;;;5065641;28;20503;-80
2023/03/15 12:26:44;;;;;;;9.40;3.00;;;20.40;1.00;;;;;;5067333;28;20488;-80
2023/03/15 12:29:16;;;;;;;6.80;2.10;;;21.80;1.00;;;;;;5066088;28;20463;-82
2023/03/15 12:31:59;;;;;;;11.77;4.07;;;22.80;1.00;;;;;;5065420;28;20508;-85
2023/03/15 12:34:31;;;;;;;6.40;2.10;;;24.00;1.00;;;;;;5076299;28;20559;-84
2023/03/15 12:37:04;;;;;;;7.63;3.23;;;24.90;1.00;;;;;;5073234;28;20646;-84
2023/03/15 12:39:41;;;;;;;5.87;2.30;;;25.40;1.00;;;;;;5072898;28;20565;-83
2023/03/15 12:42:42;;;;;;;10.23;2.07;;;23.10;1.00;;;;;;5091152;27;20459;-84
2023/03/15 12:45:34;;;;;;;7.47;2.03;;;20.20;1.00;;;;;;5068806;28;20469;-85
2023/03/15 12:48:21;;;;;;;8.33;3.97;;;20.80;1.00;;;;;;5079208;28;20470;-83
2023/03/15 12:51:03;;;;;;;6.03;2.07;;;22.30;1.00;;;;;;5071223;28;20662;-85
2023/03/15 12:53:50;;;;;;;7.13;2.17;;;22.20;1.00;;;;;;5059814;28;20552;-85
2023/03/15 12:56:31;;;;;;;7.30;2.50;;;19.80;1.00;;;;;;5046743;28;20460;-84
2023/03/15 12:59:06;;;;;;;6.20;1.70;;;17.20;1.00;;;;;;5051872;28;20455;-84
2023/03/15 13:01:34;;;;;;;6.30;2.17;;;17.00;1.00;;;;;;5046806;28;20466;-81
2023/03/15 13:04:03;;;;;;;6.70;1.97;;;16.70;1.00;;;;;;5048815;28;20518;-84
2023/03/15 13:06:42;;;;;;;7.17;1.73;;;15.50;1.00;;;;;;5045620;28;20468;-82
2023/03/15 13:09:17;;;;;;;6.47;2.00;;;15.60;1.00;;;;;;5044689;28;21323;-81
2023/03/15 13:11:51;;;;;;;7.83;2.23;;;15.30;1.00;;;;;;5049595;28;20470;-81
2023/03/15 13:14:32;;;;;;;7.97;2.20;;;15.20;1.00;;;;;;5047964;28;20652;-83